Schedule Details


Flight Number: CTN411
Departure: Frankfurt/main (EDDF) at 18:00
Arrival: Franjo Tudman (LDZA) at 19:25
Route: NOMBO UZ738 MUN UM867 VAROB DCT PIKIT DCT ARGOM

Weather Information
EDDF 162250Z 01004KT 9999 FEW036 BKN049 09/05 Q1021 NOSIG
LDZA 162230Z 25002KT 0500 R04/0550N R22/0450N FG NSC 04/03 Q1021 TEMPO 0300 VV002
Schedule Frequency

Route Map